createdAt,value
2022-09-16T00:00:34.798Z,1.67
2022-09-16T00:03:01.834Z,1.80
2022-09-16T00:05:29.215Z,1.70
2022-09-16T00:07:56.358Z,1.80
2022-09-16T00:10:23.495Z,1.77
2022-09-16T00:12:50.673Z,1.67
2022-09-16T00:15:17.766Z,1.63
2022-09-16T00:17:44.543Z,1.60
2022-09-16T00:20:11.358Z,2.10
2022-09-16T00:22:38.189Z,1.95
2022-09-16T00:25:05.334Z,1.40
2022-09-16T00:27:32.111Z,1.98
2022-09-16T00:29:58.874Z,1.73
2022-09-16T00:32:25.816Z,1.70
2022-09-16T00:34:52.813Z,1.90
2022-09-16T00:37:19.738Z,1.92
2022-09-16T00:39:49.730Z,1.60
2022-09-16T00:42:17.335Z,1.80
2022-09-16T00:44:56.410Z,2.38
2022-09-16T00:47:51.779Z,1.95
2022-09-16T00:50:21.583Z,1.85
2022-09-16T00:52:49.734Z,1.95
2022-09-16T00:55:21.291Z,2.47
2022-09-16T00:57:49.099Z,2.03
2022-09-16T01:00:16.513Z,1.70
2022-09-16T01:02:45.034Z,1.90
2022-09-16T01:05:18.843Z,1.83
2022-09-16T01:07:51.226Z,1.50
2022-09-16T01:10:23.274Z,1.83
2022-09-16T01:12:54.780Z,1.67
2022-09-16T01:15:26.234Z,1.58
2022-09-16T01:18:17.256Z,2.10
2022-09-16T01:21:08.842Z,2.10
2022-09-16T01:24:04.223Z,1.80
2022-09-16T01:27:07.534Z,2.10
2022-09-16T01:30:04.197Z,1.88
2022-09-16T01:32:44.634Z,3.00
2022-09-16T01:35:32.768Z,3.17
2022-09-16T01:38:17.892Z,2.63
2022-09-16T01:40:54.349Z,2.70
2022-09-16T01:43:35.735Z,2.45
2022-09-16T01:46:24.530Z,2.45
2022-09-16T01:49:21.281Z,2.60
2022-09-16T01:51:58.214Z,2.10
2022-09-16T01:54:42.708Z,2.35
2022-09-16T01:57:18.032Z,2.13
2022-09-16T02:00:00.458Z,2.75
2022-09-16T02:02:44.188Z,2.10
2022-09-16T02:05:45.825Z,2.00
2022-09-16T02:08:28.000Z,1.90
2022-09-16T02:10:59.676Z,2.15
2022-09-16T02:13:30.984Z,2.28
2022-09-16T02:16:04.439Z,1.90
2022-09-16T02:18:37.944Z,1.85
2022-09-16T02:21:09.442Z,2.00
2022-09-16T02:23:44.391Z,1.90
2022-09-16T02:26:16.155Z,1.90
2022-09-16T02:28:46.375Z,2.17
2022-09-16T02:31:14.733Z,1.92
2022-09-16T02:34:16.181Z,2.15
2022-09-16T02:36:48.989Z,2.30
2022-09-16T02:39:20.611Z,1.83
2022-09-16T02:41:47.473Z,2.22
2022-09-16T02:44:14.304Z,2.38
2022-09-16T02:46:58.043Z,1.88
2022-09-16T02:49:44.338Z,1.95
2022-09-16T02:52:13.990Z,1.90
2022-09-16T02:54:55.935Z,2.13
2022-09-16T02:57:22.938Z,2.30
2022-09-16T02:59:50.516Z,1.90
2022-09-16T03:02:17.646Z,2.00
2022-09-16T03:04:45.268Z,2.00
2022-09-16T03:07:14.162Z,2.20
2022-09-16T03:09:46.717Z,2.10
2022-09-16T03:12:13.447Z,1.90
2022-09-16T03:15:07.529Z,1.90
2022-09-16T03:18:06.549Z,2.08
2022-09-16T03:21:11.152Z,2.30
2022-09-16T03:23:57.697Z,2.33
2022-09-16T03:26:48.720Z,1.92
2022-09-16T03:29:32.490Z,2.20
2022-09-16T03:32:05.093Z,2.13
2022-09-16T03:34:44.208Z,1.88
2022-09-16T03:37:16.826Z,2.03
2022-09-16T03:39:50.212Z,2.28
2022-09-16T03:42:17.635Z,2.60
2022-09-16T03:44:44.423Z,1.85
2022-09-16T03:47:11.293Z,2.20
2022-09-16T03:49:38.220Z,2.30
2022-09-16T03:52:05.673Z,2.38
2022-09-16T03:54:32.914Z,2.20
2022-09-16T03:57:00.580Z,2.05
2022-09-16T03:59:28.433Z,2.22
2022-09-16T04:01:55.622Z,2.40
2022-09-16T04:04:23.059Z,2.35
2022-09-16T04:06:50.070Z,2.70
2022-09-16T04:09:16.932Z,2.33
2022-09-16T04:11:43.725Z,2.85
2022-09-16T04:14:11.142Z,2.60
2022-09-16T04:16:37.962Z,2.78
2022-09-16T04:19:05.287Z,3.00
2022-09-16T04:21:32.194Z,2.30
2022-09-16T04:23:59.015Z,2.60
2022-09-16T04:26:25.893Z,2.80
2022-09-16T04:28:54.750Z,2.40
2022-09-16T04:31:21.947Z,2.63
2022-09-16T04:33:49.142Z,2.50
2022-09-16T04:36:18.226Z,2.83
2022-09-16T04:38:47.610Z,2.58
2022-09-16T04:41:16.701Z,2.60
2022-09-16T04:43:43.559Z,2.70
2022-09-16T04:46:10.938Z,2.50
2022-09-16T04:48:38.128Z,2.60
2022-09-16T04:51:08.401Z,2.40
2022-09-16T04:53:36.079Z,2.70
2022-09-16T04:56:08.643Z,2.90
2022-09-16T04:58:36.847Z,2.38
2022-09-16T05:01:14.926Z,2.53
2022-09-16T05:03:43.928Z,2.53
2022-09-16T05:06:17.177Z,2.20
2022-09-16T05:08:48.180Z,2.63
2022-09-16T05:11:20.672Z,2.85
2022-09-16T05:13:47.510Z,2.95
2022-09-16T05:16:16.704Z,3.33
2022-09-16T05:18:45.080Z,2.80
2022-09-16T05:21:13.881Z,2.72
2022-09-16T05:23:45.860Z,3.00
2022-09-16T05:26:26.301Z,2.78
2022-09-16T05:28:53.826Z,2.72
2022-09-16T05:31:22.346Z,3.05
2022-09-16T05:34:02.699Z,2.70
2022-09-16T05:36:32.114Z,2.72
2022-09-16T05:39:21.694Z,2.67
2022-09-16T05:41:46.127Z,2.88
2022-09-16T05:44:13.518Z,2.60
2022-09-16T05:46:41.529Z,3.08
2022-09-16T05:49:09.203Z,3.00
2022-09-16T05:51:38.052Z,2.95
2022-09-16T05:54:05.191Z,2.72
2022-09-16T05:56:32.136Z,3.30
2022-09-16T05:59:00.137Z,2.85
2022-09-16T06:01:29.517Z,2.80
2022-09-16T06:03:56.454Z,3.03
2022-09-16T06:06:24.479Z,2.67
2022-09-16T06:08:55.969Z,3.38
2022-09-16T06:11:23.434Z,2.60
2022-09-16T06:13:55.778Z,3.30
2022-09-16T06:16:25.779Z,3.30
2022-09-16T06:18:54.123Z,3.35
2022-09-16T06:21:21.825Z,3.00
2022-09-16T06:23:48.638Z,3.92
2022-09-16T06:26:18.449Z,3.03
2022-09-16T06:28:47.232Z,4.25
2022-09-16T06:31:26.449Z,3.42
2022-09-16T06:33:54.376Z,3.35
2022-09-16T06:36:32.926Z,4.05
2022-09-16T06:38:59.693Z,3.53
2022-09-16T06:41:26.710Z,3.35
2022-09-16T06:43:53.917Z,3.53
2022-09-16T06:46:24.573Z,3.80
2022-09-16T06:48:53.877Z,3.55
2022-09-16T06:51:23.268Z,3.65
2022-09-16T06:53:51.002Z,3.75
2022-09-16T06:56:20.485Z,3.08
2022-09-16T06:58:49.799Z,3.30
2022-09-16T07:01:19.587Z,3.55
2022-09-16T07:03:48.919Z,3.35
2022-09-16T07:06:17.380Z,3.72
2022-09-16T07:08:44.680Z,3.45
2022-09-16T07:11:12.353Z,3.38
2022-09-16T07:13:39.807Z,4.10
2022-09-16T07:16:13.682Z,3.92
2022-09-16T07:18:42.015Z,3.90
2022-09-16T07:21:15.683Z,3.67
2022-09-16T07:23:43.593Z,3.60
2022-09-16T07:26:12.634Z,3.53
2022-09-16T07:28:40.808Z,3.10
2022-09-16T07:31:10.717Z,3.38
2022-09-16T07:33:42.937Z,3.25
2022-09-16T07:36:12.263Z,3.17
2022-09-16T07:38:39.357Z,3.10
2022-09-16T07:41:16.499Z,3.55
2022-09-16T07:43:44.224Z,3.60
2022-09-16T07:46:12.837Z,3.33
2022-09-16T07:48:39.977Z,3.15
2022-09-16T07:51:10.607Z,3.45
2022-09-16T07:53:37.445Z,2.75
2022-09-16T07:56:06.914Z,3.25
2022-09-16T07:58:33.859Z,3.22
2022-09-16T08:01:04.465Z,2.97
2022-09-16T08:03:42.132Z,3.00
2022-09-16T08:06:12.883Z,2.83
2022-09-16T08:08:40.141Z,2.60
2022-09-16T08:11:08.217Z,3.55
2022-09-16T08:13:37.535Z,2.90
2022-09-16T08:16:10.545Z,3.10
2022-09-16T08:18:37.513Z,2.80
2022-09-16T08:21:09.489Z,3.17
2022-09-16T08:23:37.321Z,3.03
2022-09-16T08:26:05.355Z,3.10
2022-09-16T08:28:45.087Z,2.85
2022-09-16T08:31:20.465Z,3.10
2022-09-16T08:33:47.761Z,3.35
2022-09-16T08:36:23.430Z,3.53
2022-09-16T08:38:56.726Z,3.25
2022-09-16T08:41:41.988Z,3.20
2022-09-16T08:44:13.899Z,2.83
2022-09-16T08:46:46.498Z,2.90
2022-09-16T08:49:26.778Z,3.05
2022-09-16T08:51:55.048Z,3.25
2022-09-16T08:54:33.591Z,3.08
2022-09-16T08:57:06.601Z,2.50
2022-09-16T08:59:39.659Z,2.60
2022-09-16T09:02:27.923Z,2.47
2022-09-16T09:04:55.147Z,2.65
2022-09-16T09:07:25.106Z,2.60
2022-09-16T09:10:24.543Z,2.50
2022-09-16T09:13:19.925Z,2.30
2022-09-16T09:16:04.419Z,2.10
2022-09-16T09:18:44.064Z,3.00
2022-09-16T09:21:15.163Z,2.70
2022-09-16T09:24:03.621Z,2.72
2022-09-16T09:26:51.965Z,2.72
2022-09-16T09:29:36.714Z,2.67
2022-09-16T09:32:23.639Z,3.03
2022-09-16T09:34:56.318Z,3.15
2022-09-16T09:38:04.537Z,3.10
2022-09-16T09:40:31.406Z,3.03
2022-09-16T09:43:20.190Z,3.08
2022-09-16T09:45:55.985Z,2.60
2022-09-16T09:48:33.669Z,3.00
2022-09-16T09:51:05.675Z,2.92
2022-09-16T09:53:39.835Z,3.20
2022-09-16T09:56:27.872Z,2.80
2022-09-16T09:59:02.133Z,2.80
2022-09-16T10:01:28.984Z,3.08
2022-09-16T10:04:00.181Z,3.10
2022-09-16T10:06:30.996Z,2.95
2022-09-16T10:08:59.097Z,3.00
2022-09-16T10:11:36.804Z,2.85
2022-09-16T10:14:06.784Z,2.95
2022-09-16T10:16:38.104Z,3.20
2022-09-16T10:19:16.420Z,3.05
2022-09-16T10:21:51.033Z,3.33
2022-09-16T10:24:36.633Z,3.10
2022-09-16T10:27:24.048Z,2.90
2022-09-16T10:30:15.445Z,2.83
2022-09-16T10:33:07.806Z,3.58
2022-09-16T10:35:40.424Z,3.20
2022-09-16T10:38:18.092Z,3.17
2022-09-16T10:41:17.378Z,4.15
2022-09-16T10:43:51.302Z,3.22
2022-09-16T10:46:19.153Z,3.47
2022-09-16T10:48:47.273Z,3.20
2022-09-16T10:51:26.399Z,3.20
2022-09-16T10:53:56.263Z,3.30
2022-09-16T10:56:25.886Z,3.40
2022-09-16T10:59:13.409Z,3.08
2022-09-16T11:01:48.206Z,3.15
2022-09-16T11:04:49.712Z,3.55
2022-09-16T11:07:34.590Z,3.30
2022-09-16T11:10:20.454Z,3.60
2022-09-16T11:13:05.628Z,2.88
2022-09-16T11:16:11.467Z,3.63
2022-09-16T11:18:50.838Z,2.85
2022-09-16T11:21:58.130Z,2.97
2022-09-16T11:24:47.476Z,3.10
2022-09-16T11:27:55.606Z,3.67
2022-09-16T11:30:23.100Z,3.15
2022-09-16T11:33:11.208Z,3.10
2022-09-16T11:36:06.515Z,3.22
2022-09-16T11:38:57.510Z,3.25
2022-09-16T11:41:36.142Z,3.08
2022-09-16T11:44:47.860Z,3.17
2022-09-16T11:47:40.662Z,2.70
2022-09-16T11:50:18.368Z,3.25
2022-09-16T11:53:17.895Z,2.83
2022-09-16T11:55:51.957Z,3.08
2022-09-16T11:58:37.190Z,3.17
2022-09-16T12:01:15.065Z,2.90
2022-09-16T12:03:56.150Z,2.78
2022-09-16T12:06:27.965Z,3.03
2022-09-16T12:09:07.654Z,3.20
2022-09-16T12:11:50.370Z,2.97
2022-09-16T12:14:23.823Z,3.22
2022-09-16T12:17:04.713Z,3.00
2022-09-16T12:19:57.317Z,3.10
2022-09-16T12:22:36.270Z,3.75
2022-09-16T12:25:09.906Z,3.03
2022-09-16T12:27:58.333Z,3.08
2022-09-16T12:30:35.855Z,2.90
2022-09-16T12:33:09.888Z,2.95
2022-09-16T12:35:54.089Z,2.97
2022-09-16T12:41:13.175Z,3.28
2022-09-16T12:43:52.046Z,2.90
2022-09-16T12:46:41.986Z,2.55
2022-09-16T12:49:34.060Z,3.03
2022-09-16T12:52:22.914Z,3.00
2022-09-16T12:55:08.248Z,2.85
2022-09-16T12:58:03.431Z,2.97
2022-09-16T13:03:20.768Z,2.60
2022-09-16T13:05:50.911Z,2.90
2022-09-16T13:08:44.380Z,2.85
2022-09-16T13:14:29.185Z,2.50
2022-09-16T13:16:58.265Z,2.55
2022-09-16T13:19:46.658Z,2.55
2022-09-16T13:22:35.312Z,2.80
2022-09-16T13:25:09.894Z,2.72
2022-09-16T13:27:39.647Z,2.58
2022-09-16T13:30:26.347Z,2.67
2022-09-16T13:32:53.050Z,2.92
2022-09-16T13:35:20.279Z,2.40
2022-09-16T13:37:48.731Z,2.30
2022-09-16T13:40:18.691Z,2.50
2022-09-16T13:42:45.613Z,2.60
2022-09-16T13:45:39.485Z,3.00
2022-09-16T13:48:27.237Z,2.85
2022-09-16T13:50:59.769Z,2.60
2022-09-16T13:53:32.839Z,2.78
2022-09-16T13:56:18.449Z,2.50
2022-09-16T13:59:18.452Z,2.50
2022-09-16T14:02:29.361Z,2.35
2022-09-16T14:05:13.904Z,2.70
2022-09-16T14:07:40.736Z,2.95
2022-09-16T14:10:26.182Z,2.38
2022-09-16T14:13:13.657Z,2.20
2022-09-16T14:15:50.846Z,2.25
2022-09-16T14:18:24.091Z,2.70
2022-09-16T14:20:55.631Z,2.22
2022-09-16T14:23:27.638Z,2.40
2022-09-16T14:25:57.834Z,2.45
2022-09-16T14:28:28.818Z,2.20
2022-09-16T14:31:00.704Z,2.10
2022-09-16T14:33:38.438Z,2.50
2022-09-16T14:36:22.974Z,2.40
2022-09-16T14:39:12.441Z,2.50
2022-09-16T14:41:44.718Z,2.60
2022-09-16T14:44:22.736Z,2.40
2022-09-16T14:47:07.390Z,2.42
2022-09-16T14:49:40.182Z,2.70
2022-09-16T14:52:26.852Z,2.55
2022-09-16T14:54:56.302Z,2.35
2022-09-16T14:57:30.397Z,2.30
2022-09-16T14:59:59.510Z,2.30
2022-09-16T15:02:34.485Z,2.05
2022-09-16T15:05:11.147Z,2.22
2022-09-16T15:07:50.896Z,2.25
2022-09-16T15:10:39.693Z,2.20
2022-09-16T15:13:20.235Z,1.98
2022-09-16T15:15:52.790Z,2.10
2022-09-16T15:18:33.519Z,2.22
2022-09-16T15:21:06.038Z,2.20
2022-09-16T15:23:34.144Z,2.50
2022-09-16T15:26:25.466Z,2.63
2022-09-16T15:28:57.718Z,2.40
2022-09-16T15:31:40.751Z,2.35
2022-09-16T15:34:21.260Z,2.45
2022-09-16T15:36:59.690Z,2.63
2022-09-16T15:39:38.772Z,2.75
2022-09-16T15:42:24.049Z,2.33
2022-09-16T15:44:57.087Z,2.30
2022-09-16T15:47:35.171Z,2.28
2022-09-16T15:50:07.411Z,2.67
2022-09-16T15:53:05.038Z,2.30
2022-09-16T15:55:38.803Z,2.25
2022-09-16T15:58:17.646Z,2.42
2022-09-16T16:01:15.148Z,2.50
2022-09-16T16:03:44.754Z,2.25
2022-09-16T16:06:12.647Z,2.65
2022-09-16T16:08:44.304Z,2.42
2022-09-16T16:11:14.310Z,3.85
2022-09-16T16:13:42.415Z,3.00
2022-09-16T16:16:09.953Z,3.00
2022-09-16T16:18:38.283Z,3.00
2022-09-16T16:21:08.209Z,2.85
2022-09-16T16:23:36.614Z,3.20
2022-09-16T16:26:05.664Z,2.80
2022-09-16T16:28:33.248Z,2.95
2022-09-16T16:31:14.122Z,2.95
2022-09-16T16:33:46.240Z,3.22
2022-09-16T16:36:17.878Z,4.43
2022-09-16T16:41:22.497Z,2.80
2022-09-16T16:43:50.333Z,2.88
2022-09-16T16:46:18.365Z,2.88
2022-09-16T16:48:45.155Z,3.10
2022-09-16T16:51:13.276Z,4.40
2022-09-16T16:53:40.104Z,3.10
2022-09-16T16:56:14.504Z,2.90
2022-09-16T16:58:43.269Z,2.70
2022-09-16T17:01:15.148Z,2.55
2022-09-16T17:03:43.114Z,2.70
2022-09-16T17:06:09.846Z,2.58
2022-09-16T17:08:36.950Z,2.50
2022-09-16T17:11:10.739Z,2.20
2022-09-16T17:13:42.763Z,2.55
2022-09-16T17:16:11.420Z,2.35
2022-09-16T17:18:40.001Z,2.80
2022-09-16T17:21:09.636Z,2.50
2022-09-16T17:23:37.191Z,2.90
2022-09-16T17:26:05.331Z,2.47
2022-09-16T17:28:32.600Z,2.47
2022-09-16T17:30:59.494Z,2.58
2022-09-16T17:33:26.326Z,2.60
2022-09-16T17:36:07.981Z,2.83
2022-09-16T17:38:35.360Z,2.50
2022-09-16T17:41:33.352Z,2.50
2022-09-16T17:44:05.417Z,2.45
2022-09-16T17:46:32.318Z,2.65
2022-09-16T17:49:01.113Z,2.67
2022-09-16T17:51:28.074Z,2.72
2022-09-16T17:53:54.822Z,2.50
2022-09-16T17:56:21.545Z,2.88
2022-09-16T17:58:48.882Z,2.65
2022-09-16T18:01:18.671Z,2.40
2022-09-16T18:03:47.680Z,2.50
2022-09-16T18:06:17.191Z,2.30
2022-09-16T18:08:44.751Z,2.45
2022-09-16T18:11:13.026Z,2.60
2022-09-16T18:13:40.666Z,2.20
2022-09-16T18:16:12.960Z,2.70
2022-09-16T18:18:41.770Z,2.65
2022-09-16T18:21:11.154Z,2.33
2022-09-16T18:23:37.915Z,2.58
2022-09-16T18:26:13.205Z,2.20
2022-09-16T18:29:08.024Z,2.38
2022-09-16T18:31:29.145Z,3.15
2022-09-16T18:33:56.960Z,2.55
2022-09-16T18:36:26.604Z,2.58
2022-09-16T18:38:54.875Z,2.55
2022-09-16T18:41:24.827Z,2.30
2022-09-16T18:43:59.578Z,2.50
2022-09-16T18:46:29.355Z,2.10
2022-09-16T18:48:57.465Z,2.00
2022-09-16T18:51:38.662Z,2.10
2022-09-16T18:54:12.747Z,2.10
2022-09-16T18:59:22.435Z,2.17
2022-09-16T19:01:55.452Z,2.30
2022-09-16T19:04:24.840Z,2.58
2022-09-16T19:06:54.625Z,2.30
2022-09-16T19:09:23.712Z,1.90
2022-09-16T19:11:52.778Z,2.13
2022-09-16T19:14:22.518Z,2.30
2022-09-16T19:16:49.690Z,2.13
2022-09-16T19:19:16.705Z,2.38
2022-09-16T19:21:44.137Z,2.00
2022-09-16T19:24:16.446Z,2.08
2022-09-16T19:26:44.835Z,1.85
2022-09-16T19:29:13.182Z,1.90
2022-09-16T19:31:41.792Z,1.70
2022-09-16T19:34:09.401Z,1.70
2022-09-16T19:36:37.163Z,1.90
2022-09-16T19:39:05.617Z,2.28
2022-09-16T19:41:34.638Z,1.80
2022-09-16T19:44:04.385Z,1.45
2022-09-16T19:46:34.190Z,1.83
2022-09-16T19:49:01.462Z,2.20
2022-09-16T19:51:29.124Z,1.90
2022-09-16T19:53:56.086Z,1.80
2022-09-16T19:56:25.727Z,1.70
2022-09-16T19:58:53.634Z,1.73
2022-09-16T20:01:26.162Z,1.65
2022-09-16T20:03:54.226Z,2.00
2022-09-16T20:06:23.843Z,1.80
2022-09-16T20:08:55.505Z,1.70
2022-09-16T20:11:24.629Z,1.70
2022-09-16T20:13:56.823Z,1.67
2022-09-16T20:16:25.772Z,1.63
2022-09-16T20:18:53.439Z,1.98
2022-09-16T20:21:22.268Z,1.60
2022-09-16T20:23:49.679Z,1.73
2022-09-16T20:26:20.986Z,1.60
2022-09-16T20:28:51.290Z,1.65
2022-09-16T20:31:36.834Z,2.03
2022-09-16T20:34:04.840Z,1.60
2022-09-16T20:36:35.947Z,1.70
2022-09-16T20:39:03.149Z,1.77
2022-09-16T20:41:31.722Z,1.65
2022-09-16T20:43:59.517Z,1.80
2022-09-16T20:46:34.673Z,1.60
2022-09-16T20:49:03.598Z,2.05
2022-09-16T20:51:31.911Z,1.70
2022-09-16T20:54:09.656Z,2.00
2022-09-16T20:56:39.428Z,1.98
2022-09-16T20:59:12.041Z,1.65
2022-09-16T21:01:40.557Z,1.65
2022-09-16T21:04:19.427Z,1.58
2022-09-16T21:06:46.626Z,1.50
2022-09-16T21:09:15.108Z,1.60
2022-09-16T21:11:44.895Z,2.15
2022-09-16T21:14:15.297Z,1.95
2022-09-16T21:16:43.058Z,3.83
2022-09-16T21:19:11.251Z,1.95
2022-09-16T21:21:40.901Z,1.60
2022-09-16T21:24:08.673Z,1.60
2022-09-16T21:26:37.927Z,1.70
2022-09-16T21:29:08.858Z,1.70
2022-09-16T21:31:38.050Z,1.77
2022-09-16T21:34:06.659Z,1.70
2022-09-16T21:36:39.215Z,1.65
2022-09-16T21:39:07.230Z,1.83
2022-09-16T21:41:34.614Z,1.52
2022-09-16T21:44:01.601Z,1.60
2022-09-16T21:46:31.790Z,1.60
2022-09-16T21:49:02.110Z,1.70
2022-09-16T21:51:35.345Z,3.35
2022-09-16T21:54:04.247Z,3.63
2022-09-16T21:56:31.690Z,1.75
2022-09-16T21:58:58.585Z,1.50
2022-09-16T22:01:31.563Z,1.60
2022-09-16T22:04:04.072Z,1.52
2022-09-16T22:06:31.671Z,1.73
2022-09-16T22:09:01.433Z,2.83
2022-09-16T22:11:31.991Z,1.70
2022-09-16T22:14:02.602Z,1.92
2022-09-16T22:16:31.361Z,1.70
2022-09-16T22:19:07.455Z,1.73
2022-09-16T22:21:36.467Z,1.83
2022-09-16T22:24:04.332Z,1.50
2022-09-16T22:26:31.725Z,1.50
2022-09-16T22:28:59.197Z,1.60
2022-09-16T22:31:28.538Z,1.73
2022-09-16T22:33:56.768Z,1.70
2022-09-16T22:36:25.969Z,1.60
2022-09-16T22:38:55.189Z,1.55
2022-09-16T22:41:22.650Z,1.70
2022-09-16T22:43:51.154Z,1.50
2022-09-16T22:46:23.908Z,1.60
2022-09-16T22:48:51.144Z,1.60
2022-09-16T22:51:20.190Z,1.67
2022-09-16T22:53:47.959Z,2.00
2022-09-16T22:56:18.031Z,3.00
2022-09-16T22:58:45.952Z,2.28
2022-09-16T23:01:16.729Z,2.08
2022-09-16T23:03:45.099Z,1.50
2022-09-16T23:06:14.415Z,1.98
2022-09-16T23:08:43.366Z,1.70
2022-09-16T23:11:13.258Z,2.00
2022-09-16T23:13:43.739Z,1.90
2022-09-16T23:16:17.969Z,1.80
2022-09-16T23:18:46.359Z,1.67
2022-09-16T23:21:16.398Z,2.20
2022-09-16T23:23:46.467Z,1.80
2022-09-16T23:26:19.543Z,1.85
2022-09-16T23:28:50.600Z,1.75
2022-09-16T23:31:19.329Z,1.90
2022-09-16T23:33:46.310Z,1.77
2022-09-16T23:36:15.329Z,2.10
2022-09-16T23:38:43.079Z,2.00
2022-09-16T23:41:21.427Z,1.88
2022-09-16T23:43:49.778Z,2.28
2022-09-16T23:46:19.457Z,2.20
2022-09-16T23:48:46.785Z,2.00
2022-09-16T23:51:14.102Z,2.30
2022-09-16T23:53:42.470Z,2.20
2022-09-16T23:56:11.382Z,2.20
2022-09-16T23:58:38.739Z,2.03
